sensor_id;sensor_type;location;lat;lon;timestamp;pressure;altitude;pressure_sealevel;temperature;humidity
37298;BME280;30517;51.932;4.278;2023-04-26T00:02:30;102022.28;;;11.61;53.39
37298;BME280;30517;51.932;4.278;2023-04-26T00:05:10;102015.13;;;11.50;53.88
37298;BME280;30517;51.932;4.278;2023-04-26T00:07:52;102014.31;;;11.56;54.30
37298;BME280;30517;51.932;4.278;2023-04-26T00:10:33;102020.31;;;11.43;53.93
37298;BME280;30517;51.932;4.278;2023-04-26T00:13:14;102015.94;;;11.46;54.04
37298;BME280;30517;51.932;4.278;2023-04-26T00:15:55;102022.97;;;11.47;54.06
37298;BME280;30517;51.932;4.278;2023-04-26T00:18:35;101993.63;;;11.24;53.47
37298;BME280;30517;51.932;4.278;2023-04-26T00:21:16;102030.00;;;11.42;53.91
37298;BME280;30517;51.932;4.278;2023-04-26T00:23:57;102030.84;;;11.40;54.31
37298;BME280;30517;51.932;4.278;2023-04-26T00:26:38;101997.09;;;11.20;54.01
37298;BME280;30517;51.932;4.278;2023-04-26T00:29:19;102016.63;;;11.32;53.67
37298;BME280;30517;51.932;4.278;2023-04-26T00:31:59;102015.69;;;11.28;54.42
37298;BME280;30517;51.932;4.278;2023-04-26T00:34:40;102002.28;;;11.14;53.96
37298;BME280;30517;51.932;4.278;2023-04-26T00:37:21;101992.56;;;11.10;54.22
37298;BME280;30517;51.932;4.278;2023-04-26T00:40:02;101997.84;;;11.12;54.42
37298;BME280;30517;51.932;4.278;2023-04-26T00:42:43;101989.81;;;11.04;54.21
37298;BME280;30517;51.932;4.278;2023-04-26T00:45:24;102018.22;;;11.19;54.00
37298;BME280;30517;51.932;4.278;2023-04-26T00:58:57;102017.16;;;11.04;54.04
37298;BME280;30517;51.932;4.278;2023-04-26T01:01:38;102027.63;;;11.01;54.00
37298;BME280;30517;51.932;4.278;2023-04-26T01:04:21;102009.00;;;10.91;54.01
37298;BME280;30517;51.932;4.278;2023-04-26T01:07:06;102021.38;;;10.96;54.26
37298;BME280;30517;51.932;4.278;2023-04-26T01:09:48;102015.22;;;10.94;54.20
37298;BME280;30517;51.932;4.278;2023-04-26T01:12:30;102005.31;;;10.79;54.00
37298;BME280;30517;51.932;4.278;2023-04-26T01:15:11;101999.06;;;10.74;53.84
37298;BME280;30517;51.932;4.278;2023-04-26T01:17:52;102020.38;;;10.88;53.84
37298;BME280;30517;51.932;4.278;2023-04-26T01:20:33;101990.13;;;10.65;54.21
37298;BME280;30517;51.932;4.278;2023-04-26T01:23:14;102022.97;;;10.83;54.10
37298;BME280;30517;51.932;4.278;2023-04-26T01:25:56;101846.41;;;9.85;53.91
37298;BME280;30517;51.932;4.278;2023-04-26T01:28:36;101969.66;;;10.50;54.37
37298;BME280;30517;51.932;4.278;2023-04-26T01:31:17;102025.47;;;10.74;54.14
37298;BME280;30517;51.932;4.278;2023-04-26T01:33:58;102020.13;;;10.71;54.53
37298;BME280;30517;51.932;4.278;2023-04-26T01:36:39;102001.41;;;10.54;54.21
37298;BME280;30517;51.932;4.278;2023-04-26T01:39:20;102020.97;;;10.67;54.23
37298;BME280;30517;51.932;4.278;2023-04-26T01:42:02;102017.44;;;10.67;54.51
37298;BME280;30517;51.932;4.278;2023-04-26T01:44:43;102022.63;;;10.62;54.19
37298;BME280;30517;51.932;4.278;2023-04-26T01:47:24;101982.63;;;10.36;54.61
37298;BME280;30517;51.932;4.278;2023-04-26T01:50:06;102023.25;;;10.47;54.80
37298;BME280;30517;51.932;4.278;2023-04-26T01:52:47;101991.16;;;10.23;55.00
37298;BME280;30517;51.932;4.278;2023-04-26T01:55:28;101975.13;;;10.10;55.05
37298;BME280;30517;51.932;4.278;2023-04-26T01:58:08;101960.78;;;9.96;55.50
37298;BME280;30517;51.932;4.278;2023-04-26T02:00:49;102009.41;;;10.12;55.26
37298;BME280;30517;51.932;4.278;2023-04-26T02:03:30;102014.84;;;10.19;55.39
37298;BME280;30517;51.932;4.278;2023-04-26T02:06:11;102005.84;;;10.08;55.55
37298;BME280;30517;51.932;4.278;2023-04-26T02:08:52;102000.41;;;9.99;55.76
37298;BME280;30517;51.932;4.278;2023-04-26T02:11:33;101995.06;;;9.96;55.87
37298;BME280;30517;51.932;4.278;2023-04-26T02:14:14;101972.84;;;9.82;55.75
37298;BME280;30517;51.932;4.278;2023-04-26T02:16:55;101984.97;;;9.73;55.94
37298;BME280;30517;51.932;4.278;2023-04-26T02:19:36;101945.97;;;9.54;56.12
37298;BME280;30517;51.932;4.278;2023-04-26T02:22:17;102009.88;;;9.89;56.53
37298;BME280;30517;51.932;4.278;2023-04-26T02:24:58;102009.00;;;9.90;56.16
37298;BME280;30517;51.932;4.278;2023-04-26T02:27:39;101997.44;;;9.81;56.42
37298;BME280;30517;51.932;4.278;2023-04-26T02:30:20;101998.25;;;9.80;55.80
37298;BME280;30517;51.932;4.278;2023-04-26T02:33:01;101985.81;;;9.71;56.66
37298;BME280;30517;51.932;4.278;2023-04-26T02:35:41;101981.16;;;9.58;56.58
37298;BME280;30517;51.932;4.278;2023-04-26T02:38:23;101979.34;;;9.55;56.61
37298;BME280;30517;51.932;4.278;2023-04-26T02:41:05;101986.53;;;9.62;56.60
37298;BME280;30517;51.932;4.278;2023-04-26T02:43:46;102005.06;;;9.67;56.46
37298;BME280;30517;51.932;4.278;2023-04-26T02:46:26;101977.31;;;9.42;56.73
37298;BME280;30517;51.932;4.278;2023-04-26T02:49:07;101996.97;;;9.58;56.33
37298;BME280;30517;51.932;4.278;2023-04-26T02:51:48;102004.84;;;9.56;56.54
37298;BME280;30517;51.932;4.278;2023-04-26T02:54:29;101973.78;;;9.40;56.68
37298;BME280;30517;51.932;4.278;2023-04-26T02:57:10;101990.75;;;9.54;56.75
37298;BME280;30517;51.932;4.278;2023-04-26T02:59:51;101972.06;;;9.42;57.00
37298;BME280;30517;51.932;4.278;2023-04-26T03:02:32;101994.16;;;9.48;56.67
37298;BME280;30517;51.932;4.278;2023-04-26T03:05:13;101983.47;;;9.41;56.45
37298;BME280;30517;51.932;4.278;2023-04-26T03:07:54;101957.66;;;9.24;56.54
37298;BME280;30517;51.932;4.278;2023-04-26T03:10:35;101995.84;;;9.46;56.45
37298;BME280;30517;51.932;4.278;2023-04-26T03:13:16;101958.38;;;9.16;56.73
37298;BME280;30517;51.932;4.278;2023-04-26T03:15:56;101998.38;;;9.40;57.16
37298;BME280;30517;51.932;4.278;2023-04-26T03:18:37;101976.16;;;9.27;56.90
37298;BME280;30517;51.932;4.278;2023-04-26T03:21:18;102007.09;;;9.38;56.94
37298;BME280;30517;51.932;4.278;2023-04-26T03:24:00;102011.50;;;9.39;56.59
37298;BME280;30517;51.932;4.278;2023-04-26T03:26:43;101987.66;;;9.33;56.41
37298;BME280;30517;51.932;4.278;2023-04-26T03:29:24;101968.16;;;9.23;56.82
37298;BME280;30517;51.932;4.278;2023-04-26T03:32:06;101959.13;;;9.10;56.65
37298;BME280;30517;51.932;4.278;2023-04-26T03:34:46;101964.63;;;9.22;56.57
37298;BME280;30517;51.932;4.278;2023-04-26T03:37:28;101972.66;;;9.28;56.17
37298;BME280;30517;51.932;4.278;2023-04-26T03:40:10;101980.72;;;9.36;56.46
37298;BME280;30517;51.932;4.278;2023-04-26T03:42:51;101978.09;;;9.36;56.82
37298;BME280;30517;51.932;4.278;2023-04-26T03:56:24;101977.91;;;9.28;56.37
37298;BME280;30517;51.932;4.278;2023-04-26T03:59:05;101970.94;;;9.29;56.26
37298;BME280;30517;51.932;4.278;2023-04-26T04:01:45;101961.06;;;9.20;56.26
37298;BME280;30517;51.932;4.278;2023-04-26T04:04:26;101945.97;;;9.10;56.40
37298;BME280;30517;51.932;4.278;2023-04-26T04:07:07;101981.28;;;9.21;56.95
37298;BME280;30517;51.932;4.278;2023-04-26T04:09:48;101940.47;;;8.99;56.58
37298;BME280;30517;51.932;4.278;2023-04-26T04:12:28;101966.16;;;9.11;56.75
37298;BME280;30517;51.932;4.278;2023-04-26T04:15:09;101975.03;;;9.16;57.01
37298;BME280;30517;51.932;4.278;2023-04-26T04:17:50;101960.75;;;9.05;57.13
37298;BME280;30517;51.932;4.278;2023-04-26T04:20:31;101975.94;;;9.17;57.15
37298;BME280;30517;51.932;4.278;2023-04-26T04:23:12;101945.63;;;8.96;56.58
37298;BME280;30517;51.932;4.278;2023-04-26T04:25:53;101987.22;;;9.11;56.86
37298;BME280;30517;51.932;4.278;2023-04-26T04:28:33;101909.84;;;8.63;56.79
37298;BME280;30517;51.932;4.278;2023-04-26T04:31:14;101945.38;;;8.84;57.07
37298;BME280;30517;51.932;4.278;2023-04-26T04:33:56;101984.63;;;9.14;56.46
37298;BME280;30517;51.932;4.278;2023-04-26T04:36:37;101985.53;;;9.15;56.54
37298;BME280;30517;51.932;4.278;2023-04-26T04:39:19;101979.25;;;9.09;56.55
37298;BME280;30517;51.932;4.278;2023-04-26T04:42:00;101970.25;;;8.98;56.89
37298;BME280;30517;51.932;4.278;2023-04-26T04:44:41;101957.72;;;8.86;56.80
37298;BME280;30517;51.932;4.278;2023-04-26T04:47:22;101994.09;;;9.06;56.88
37298;BME280;30517;51.932;4.278;2023-04-26T04:50:06;101990.56;;;9.04;57.30
37298;BME280;30517;51.932;4.278;2023-04-26T04:52:47;101992.28;;;9.02;57.33
37298;BME280;30517;51.932;4.278;2023-04-26T04:55:28;101983.41;;;8.98;57.34
37298;BME280;30517;51.932;4.278;2023-04-26T04:58:09;101969.25;;;8.92;56.79
37298;BME280;30517;51.932;4.278;2023-04-26T05:00:51;101957.72;;;8.88;57.36
37298;BME280;30517;51.932;4.278;2023-04-26T05:03:33;101910.59;;;8.58;56.54
37298;BME280;30517;51.932;4.278;2023-04-26T05:06:14;101978.13;;;8.97;56.76
37298;BME280;30517;51.932;4.278;2023-04-26T05:08:55;101980.78;;;8.98;56.91
37298;BME280;30517;51.932;4.278;2023-04-26T05:11:36;101865.09;;;8.24;57.38
37298;BME280;30517;51.932;4.278;2023-04-26T05:14:17;101990.38;;;8.96;56.74
37298;BME280;30517;51.932;4.278;2023-04-26T05:16:58;101993.81;;;8.94;56.66
37298;BME280;30517;51.932;4.278;2023-04-26T05:19:38;101921.34;;;8.32;57.18
37298;BME280;30517;51.932;4.278;2023-04-26T05:22:19;101959.00;;;8.66;56.89
37298;BME280;30517;51.932;4.278;2023-04-26T05:25:01;101994.50;;;8.85;56.78
37298;BME280;30517;51.932;4.278;2023-04-26T05:27:43;101956.34;;;8.66;57.43
37298;BME280;30517;51.932;4.278;2023-04-26T05:30:24;101999.00;;;8.91;57.34
37298;BME280;30517;51.932;4.278;2023-04-26T05:33:05;101971.41;;;8.72;57.21
37298;BME280;30517;51.932;4.278;2023-04-26T05:35:46;101982.91;;;8.77;57.07
37298;BME280;30517;51.932;4.278;2023-04-26T05:38:27;101985.69;;;8.83;57.02
37298;BME280;30517;51.932;4.278;2023-04-26T05:41:09;102008.78;;;8.96;56.90
37298;BME280;30517;51.932;4.278;2023-04-26T05:43:50;102001.59;;;8.88;56.54
37298;BME280;30517;51.932;4.278;2023-04-26T05:46:30;102014.97;;;8.97;56.65
37298;BME280;30517;51.932;4.278;2023-04-26T05:49:12;102022.00;;;8.98;56.43
37298;BME280;30517;51.932;4.278;2023-04-26T05:51:53;102017.59;;;8.97;56.61
37298;BME280;30517;51.932;4.278;2023-04-26T05:54:33;101995.38;;;8.85;56.28
37298;BME280;30517;51.932;4.278;2023-04-26T05:57:15;102003.38;;;8.89;56.55
37298;BME280;30517;51.932;4.278;2023-04-26T05:59:57;102013.16;;;8.96;56.55
37298;BME280;30517;51.932;4.278;2023-04-26T06:02:38;101990.06;;;8.82;56.47
37298;BME280;30517;51.932;4.278;2023-04-26T06:05:19;101977.44;;;8.68;56.76
37298;BME280;30517;51.932;4.278;2023-04-26T06:08:00;102023.81;;;9.00;56.97
37298;BME280;30517;51.932;4.278;2023-04-26T06:10:40;102030.66;;;8.94;56.98
37298;BME280;30517;51.932;4.278;2023-04-26T06:13:21;102016.38;;;8.82;57.33
37298;BME280;30517;51.932;4.278;2023-04-26T06:16:02;102029.75;;;8.92;56.89
37298;BME280;30517;51.932;4.278;2023-04-26T06:18:43;102013.72;;;8.81;56.89
37298;BME280;30517;51.932;4.278;2023-04-26T06:21:24;101987.03;;;8.66;56.85
37298;BME280;30517;51.932;4.278;2023-04-26T06:24:08;102037.78;;;8.98;56.77
37298;BME280;30517;51.932;4.278;2023-04-26T06:26:49;102040.34;;;8.95;57.00
37298;BME280;30517;51.932;4.278;2023-04-26T06:29:33;102039.56;;;8.99;56.85
37298;BME280;30517;51.932;4.278;2023-04-26T06:32:17;102014.59;;;8.81;56.83
37298;BME280;30517;51.932;4.278;2023-04-26T06:34:58;102037.84;;;9.01;56.86
37298;BME280;30517;51.932;4.278;2023-04-26T06:37:38;102020.13;;;8.94;56.77
37298;BME280;30517;51.932;4.278;2023-04-26T06:40:19;102011.41;;;8.95;56.58
37298;BME280;30517;51.932;4.278;2023-04-26T06:43:01;102044.06;;;9.04;56.68
37298;BME280;30517;51.932;4.278;2023-04-26T06:45:42;102037.94;;;9.04;56.35
37298;BME280;30517;51.932;4.278;2023-04-26T06:48:23;101980.34;;;8.78;56.05
37298;BME280;30517;51.932;4.278;2023-04-26T06:51:07;102026.59;;;9.06;56.14
37298;BME280;30517;51.932;4.278;2023-04-26T06:53:48;102007.03;;;8.95;56.68
37298;BME280;30517;51.932;4.278;2023-04-26T06:56:29;102007.09;;;8.98;56.45
37298;BME280;30517;51.932;4.278;2023-04-26T06:59:10;101986.69;;;8.88;56.34
37298;BME280;30517;51.932;4.278;2023-04-26T07:01:51;102048.56;;;9.08;56.64
37298;BME280;30517;51.932;4.278;2023-04-26T07:04:32;102025.00;;;9.13;56.33
37298;BME280;30517;51.932;4.278;2023-04-26T07:07:13;102000.19;;;9.02;56.30
37298;BME280;30517;51.932;4.278;2023-04-26T07:09:55;102017.88;;;9.09;56.47
37298;BME280;30517;51.932;4.278;2023-04-26T07:12:36;102020.53;;;9.11;56.17
37298;BME280;30517;51.932;4.278;2023-04-26T07:15:17;102020.56;;;9.12;56.40
37298;BME280;30517;51.932;4.278;2023-04-26T07:17:57;102017.84;;;9.07;56.21
37298;BME280;30517;51.932;4.278;2023-04-26T07:20:38;102012.41;;;9.01;55.98
37298;BME280;30517;51.932;4.278;2023-04-26T07:23:19;102031.25;;;9.18;56.01
37298;BME280;30517;51.932;4.278;2023-04-26T07:26:00;102018.09;;;9.18;56.04
37298;BME280;30517;51.932;4.278;2023-04-26T07:28:43;102037.56;;;9.26;56.47
37298;BME280;30517;51.932;4.278;2023-04-26T07:31:24;102005.66;;;9.13;56.07
37298;BME280;30517;51.932;4.278;2023-04-26T07:34:04;102041.16;;;9.30;55.94
37298;BME280;30517;51.932;4.278;2023-04-26T07:36:45;102017.09;;;9.13;56.25
37298;BME280;30517;51.932;4.278;2023-04-26T07:39:26;102042.78;;;9.25;56.53
37298;BME280;30517;51.932;4.278;2023-04-26T07:42:07;102059.47;;;9.25;56.50
37298;BME280;30517;51.932;4.278;2023-04-26T07:44:48;102046.25;;;9.22;56.95
37298;BME280;30517;51.932;4.278;2023-04-26T07:47:29;101966.19;;;8.75;56.71
37298;BME280;30517;51.932;4.278;2023-04-26T07:50:10;102030.28;;;9.15;57.17
37298;BME280;30517;51.932;4.278;2023-04-26T07:52:51;102043.69;;;9.25;56.81
37298;BME280;30517;51.932;4.278;2023-04-26T07:55:32;102053.38;;;9.26;56.84
37298;BME280;30517;51.932;4.278;2023-04-26T07:58:12;102010.78;;;9.05;57.00
37298;BME280;30517;51.932;4.278;2023-04-26T08:00:53;102060.41;;;9.27;57.10
37298;BME280;30517;51.932;4.278;2023-04-26T08:03:34;102042.72;;;9.22;57.21
37298;BME280;30517;51.932;4.278;2023-04-26T08:06:15;102005.31;;;8.97;56.82
37298;BME280;30517;51.932;4.278;2023-04-26T08:08:56;102038.34;;;9.22;56.50
37298;BME280;30517;51.932;4.278;2023-04-26T08:11:37;102033.06;;;9.21;56.88
37298;BME280;30517;51.932;4.278;2023-04-26T08:14:20;102050.00;;;9.34;56.78
37298;BME280;30517;51.932;4.278;2023-04-26T08:17:01;101971.00;;;8.91;56.43
37298;BME280;30517;51.932;4.278;2023-04-26T08:19:41;102017.97;;;9.14;56.95
37298;BME280;30517;51.932;4.278;2023-04-26T08:22:22;102033.22;;;9.28;56.48
37298;BME280;30517;51.932;4.278;2023-04-26T08:25:03;102023.44;;;9.23;56.63
37298;BME280;30517;51.932;4.278;2023-04-26T08:27:45;102061.75;;;9.48;56.82
37298;BME280;30517;51.932;4.278;2023-04-26T08:30:26;102058.28;;;9.50;56.33
37298;BME280;30517;51.932;4.278;2023-04-26T08:33:08;102018.50;;;9.38;56.17
37298;BME280;30517;51.932;4.278;2023-04-26T08:35:49;102031.03;;;9.50;56.02
37298;BME280;30517;51.932;4.278;2023-04-26T08:38:30;102008.91;;;9.42;55.94
37298;BME280;30517;51.932;4.278;2023-04-26T08:41:12;102018.69;;;9.47;56.42
37298;BME280;30517;51.932;4.278;2023-04-26T08:43:54;101984.97;;;9.29;56.30
37298;BME280;30517;51.932;4.278;2023-04-26T08:46:59;102049.91;;;9.70;56.23
37298;BME280;30517;51.932;4.278;2023-04-26T08:49:43;102024.06;;;9.52;55.70
37298;BME280;30517;51.932;4.278;2023-04-26T08:52:28;102053.59;;;9.78;56.16
37298;BME280;30517;51.932;4.278;2023-04-26T08:55:10;102060.69;;;9.82;56.04
37298;BME280;30517;51.932;4.278;2023-04-26T08:57:52;102005.63;;;9.52;56.36
37298;BME280;30517;51.932;4.278;2023-04-26T09:00:33;102047.44;;;9.79;55.63
37298;BME280;30517;51.932;4.278;2023-04-26T09:03:14;102054.53;;;9.82;55.58
37298;BME280;30517;51.932;4.278;2023-04-26T09:05:55;102042.34;;;9.87;55.51
37298;BME280;30517;51.932;4.278;2023-04-26T09:08:39;102060.06;;;9.94;55.92
37298;BME280;30517;51.932;4.278;2023-04-26T09:11:21;102060.06;;;9.94;55.59
37298;BME280;30517;51.932;4.278;2023-04-26T09:14:01;102007.78;;;9.71;55.64
37298;BME280;30517;51.932;4.278;2023-04-26T09:16:42;102053.31;;;10.08;55.69
37298;BME280;30517;51.932;4.278;2023-04-26T09:19:39;102062.09;;;10.09;55.67
37298;BME280;30517;51.932;4.278;2023-04-26T09:22:42;102030.34;;;10.03;55.75
37298;BME280;30517;51.932;4.278;2023-04-26T09:25:30;102045.56;;;10.17;55.27
37298;BME280;30517;51.932;4.278;2023-04-26T09:28:19;102047.41;;;10.22;55.29
37298;BME280;30517;51.932;4.278;2023-04-26T09:31:01;102059.75;;;10.26;55.29
37298;BME280;30517;51.932;4.278;2023-04-26T09:33:57;102020.63;;;10.00;55.43
37298;BME280;30517;51.932;4.278;2023-04-26T09:36:51;102035.97;;;10.23;55.45
37298;BME280;30517;51.932;4.278;2023-04-26T09:39:36;102042.34;;;10.32;55.16
37298;BME280;30517;51.932;4.278;2023-04-26T09:42:18;102027.16;;;10.20;55.16
37298;BME280;30517;51.932;4.278;2023-04-26T09:45:06;102011.31;;;10.19;54.92
37298;BME280;30517;51.932;4.278;2023-04-26T09:47:47;102044.22;;;10.39;55.16
37298;BME280;30517;51.932;4.278;2023-04-26T09:50:29;102052.91;;;10.34;55.19
37298;BME280;30517;51.932;4.278;2023-04-26T09:53:27;102052.22;;;10.43;55.06
37298;BME280;30517;51.932;4.278;2023-04-26T09:56:09;102052.28;;;10.47;55.16
37298;BME280;30517;51.932;4.278;2023-04-26T09:58:56;102010.47;;;10.22;55.10
37298;BME280;30517;51.932;4.278;2023-04-26T10:01:37;101980.28;;;10.04;55.22
37298;BME280;30517;51.932;4.278;2023-04-26T10:04:19;102037.28;;;10.43;54.85
37298;BME280;30517;51.932;4.278;2023-04-26T10:07:03;102047.00;;;10.46;55.09
37298;BME280;30517;51.932;4.278;2023-04-26T10:09:44;102014.19;;;10.30;55.23
37298;BME280;30517;51.932;4.278;2023-04-26T10:12:25;102052.38;;;10.52;55.26
37298;BME280;30517;51.932;4.278;2023-04-26T10:15:08;102057.78;;;10.61;55.18
37298;BME280;30517;51.932;4.278;2023-04-26T10:17:50;102060.47;;;10.62;55.10
37298;BME280;30517;51.932;4.278;2023-04-26T10:20:31;102070.13;;;10.63;54.96
37298;BME280;30517;51.932;4.278;2023-04-26T10:23:17;102023.09;;;10.38;55.32
37298;BME280;30517;51.932;4.278;2023-04-26T10:26:04;102040.09;;;10.54;55.13
37298;BME280;30517;51.932;4.278;2023-04-26T10:34:30;102050.16;;;10.78;54.72
37298;BME280;30517;51.932;4.278;2023-04-26T10:37:16;102051.88;;;10.76;55.25
37298;BME280;30517;51.932;4.278;2023-04-26T10:40:23;102010.19;;;10.53;55.11
37298;BME280;30517;51.932;4.278;2023-04-26T10:45:52;102018.28;;;10.64;54.82
37298;BME280;30517;51.932;4.278;2023-04-26T10:48:35;102044.97;;;10.84;55.23
37298;BME280;30517;51.932;4.278;2023-04-26T10:51:16;102037.09;;;10.85;55.03
37298;BME280;30517;51.932;4.278;2023-04-26T10:53:57;102038.88;;;10.88;55.01
37298;BME280;30517;51.932;4.278;2023-04-26T10:59:20;102027.53;;;10.94;55.27
37298;BME280;30517;51.932;4.278;2023-04-26T11:02:01;102034.59;;;10.95;54.97
37298;BME280;30517;51.932;4.278;2023-04-26T11:04:51;102025.81;;;10.97;54.90
37298;BME280;30517;51.932;4.278;2023-04-26T11:07:36;102009.94;;;10.96;55.42
37298;BME280;30517;51.932;4.278;2023-04-26T11:10:23;102033.81;;;11.02;55.12
37298;BME280;30517;51.932;4.278;2023-04-26T11:13:04;101994.91;;;10.90;55.39
37298;BME280;30517;51.932;4.278;2023-04-26T11:15:45;101993.16;;;10.91;55.30
37298;BME280;30517;51.932;4.278;2023-04-26T11:18:27;102017.19;;;11.07;54.95
37298;BME280;30517;51.932;4.278;2023-04-26T11:21:09;101980.88;;;10.91;55.44
37298;BME280;30517;51.932;4.278;2023-04-26T11:23:54;102008.38;;;11.08;55.35
37298;BME280;30517;51.932;4.278;2023-04-26T11:26:35;102008.41;;;11.10;55.34
37298;BME280;30517;51.932;4.278;2023-04-26T11:29:19;102008.47;;;11.15;55.36
37298;BME280;30517;51.932;4.278;2023-04-26T11:32:01;102005.78;;;11.10;55.13
37298;BME280;30517;51.932;4.278;2023-04-26T11:34:42;101997.91;;;11.15;55.20
37298;BME280;30517;51.932;4.278;2023-04-26T11:37:23;101957.16;;;10.94;54.85
37298;BME280;30517;51.932;4.278;2023-04-26T11:40:05;101919.84;;;10.71;55.37
37298;BME280;30517;51.932;4.278;2023-04-26T11:42:46;102013.94;;;11.28;55.51
37298;BME280;30517;51.932;4.278;2023-04-26T11:45:28;102008.59;;;11.24;55.65
37298;BME280;30517;51.932;4.278;2023-04-26T11:48:09;102015.78;;;11.34;55.05
37298;BME280;30517;51.932;4.278;2023-04-26T11:50:52;102007.91;;;11.39;55.48
37298;BME280;30517;51.932;4.278;2023-04-26T11:53:42;102010.63;;;11.43;55.11
37298;BME280;30517;51.932;4.278;2023-04-26T11:56:24;101985.72;;;11.24;55.04
37298;BME280;30517;51.932;4.278;2023-04-26T11:59:05;101993.69;;;11.27;55.50
37298;BME280;30517;51.932;4.278;2023-04-26T12:01:49;101933.56;;;11.08;55.29
37298;BME280;30517;51.932;4.278;2023-04-26T12:04:31;101943.28;;;11.12;55.02
37298;BME280;30517;51.932;4.278;2023-04-26T12:07:17;101989.47;;;11.43;55.41
37298;BME280;30517;51.932;4.278;2023-04-26T12:10:12;101952.28;;;11.26;55.03
37298;BME280;30517;51.932;4.278;2023-04-26T12:12:54;101999.34;;;11.57;55.45
37298;BME280;30517;51.932;4.278;2023-04-26T12:15:36;101963.88;;;11.39;55.29
37298;BME280;30517;51.932;4.278;2023-04-26T12:18:17;101982.47;;;11.47;55.18
37298;BME280;30517;51.932;4.278;2023-04-26T12:20:58;101939.94;;;11.24;55.07
37298;BME280;30517;51.932;4.278;2023-04-26T12:23:39;101932.97;;;11.29;55.32
37298;BME280;30517;51.932;4.278;2023-04-26T12:26:20;102006.66;;;11.82;54.91
37298;BME280;30517;51.932;4.278;2023-04-26T12:29:01;101950.81;;;11.51;54.79
37298;BME280;30517;51.932;4.278;2023-04-26T12:31:42;101991.63;;;11.75;54.62
37298;BME280;30517;51.932;4.278;2023-04-26T12:34:23;102035.94;;;11.94;55.25
37298;BME280;30517;51.932;4.278;2023-04-26T12:37:04;101975.78;;;11.78;55.39
37298;BME280;30517;51.932;4.278;2023-04-26T12:39:45;102016.66;;;12.05;55.16
37298;BME280;30517;51.932;4.278;2023-04-26T12:42:26;101970.50;;;11.78;55.47
37298;BME280;30517;51.932;4.278;2023-04-26T12:45:07;102016.75;;;12.15;54.96
37298;BME280;30517;51.932;4.278;2023-04-26T12:47:48;102010.66;;;12.21;55.54
37298;BME280;30517;51.932;4.278;2023-04-26T12:50:29;102013.34;;;12.27;55.13
37298;BME280;30517;51.932;4.278;2023-04-26T12:53:10;101996.59;;;12.27;54.76
37298;BME280;30517;51.932;4.278;2023-04-26T12:55:51;102019.63;;;12.40;55.04
37298;BME280;30517;51.932;4.278;2023-04-26T12:58:32;101984.16;;;12.18;55.16
37298;BME280;30517;51.932;4.278;2023-04-26T13:01:13;101985.22;;;12.37;55.10
37298;BME280;30517;51.932;4.278;2023-04-26T13:03:53;101979.88;;;12.32;54.96
37298;BME280;30517;51.932;4.278;2023-04-26T13:06:35;101979.91;;;12.38;54.61
37298;BME280;30517;51.932;4.278;2023-04-26T13:09:16;102023.41;;;12.67;54.53
37298;BME280;30517;51.932;4.278;2023-04-26T13:11:57;102008.31;;;12.59;54.77
37298;BME280;30517;51.932;4.278;2023-04-26T13:14:38;102026.13;;;12.77;55.05
37298;BME280;30517;51.932;4.278;2023-04-26T13:17:23;101998.66;;;12.65;54.24
37298;BME280;30517;51.932;4.278;2023-04-26T13:20:05;101977.47;;;12.61;54.02
37298;BME280;30517;51.932;4.278;2023-04-26T13:22:46;102020.84;;;12.85;54.45
37298;BME280;30517;51.932;4.278;2023-04-26T13:25:27;102018.31;;;12.97;54.11
37298;BME280;30517;51.932;4.278;2023-04-26T13:28:07;102010.41;;;13.02;53.71
37298;BME280;30517;51.932;4.278;2023-04-26T13:30:48;102029.00;;;13.14;53.74
37298;BME280;30517;51.932;4.278;2023-04-26T13:33:29;102013.09;;;13.11;54.49
37298;BME280;30517;51.932;4.278;2023-04-26T13:36:10;102021.06;;;13.17;53.70
37298;BME280;30517;51.932;4.278;2023-04-26T13:38:51;102018.47;;;13.22;53.55
37298;BME280;30517;51.932;4.278;2023-04-26T13:41:34;102022.06;;;13.28;53.72
37298;BME280;30517;51.932;4.278;2023-04-26T13:44:15;102000.81;;;13.21;53.88
37298;BME280;30517;51.932;4.278;2023-04-26T13:46:56;102030.09;;;13.47;53.56
37298;BME280;30517;51.932;4.278;2023-04-26T13:49:37;102021.28;;;13.45;53.52
37298;BME280;30517;51.932;4.278;2023-04-26T13:52:20;101961.03;;;13.22;53.71
37298;BME280;30517;51.932;4.278;2023-04-26T13:55:01;102027.53;;;13.64;53.39
37298;BME280;30517;51.932;4.278;2023-04-26T13:57:43;102026.66;;;13.71;53.71
37298;BME280;30517;51.932;4.278;2023-04-26T14:00:24;101960.28;;;13.37;53.26
37298;BME280;30517;51.932;4.278;2023-04-26T14:03:05;102016.09;;;13.79;53.57
37298;BME280;30517;51.932;4.278;2023-04-26T14:05:46;101993.06;;;13.65;53.17
37298;BME280;30517;51.932;4.278;2023-04-26T14:08:27;102035.56;;;13.91;53.08
37298;BME280;30517;51.932;4.278;2023-04-26T14:11:07;101922.25;;;13.34;53.05
37298;BME280;30517;51.932;4.278;2023-04-26T14:13:50;102014.34;;;13.93;53.18
37298;BME280;30517;51.932;4.278;2023-04-26T14:16:34;102017.91;;;13.98;53.09
37298;BME280;30517;51.932;4.278;2023-04-26T14:19:16;102003.72;;;13.93;52.93
37298;BME280;30517;51.932;4.278;2023-04-26T14:21:57;102016.16;;;14.14;52.68
37298;BME280;30517;51.932;4.278;2023-04-26T14:24:37;101994.94;;;14.02;52.81
37298;BME280;30517;51.932;4.278;2023-04-26T14:27:18;102028.56;;;14.23;52.75
37298;BME280;30517;51.932;4.278;2023-04-26T14:29:59;102025.06;;;14.31;52.83
37298;BME280;30517;51.932;4.278;2023-04-26T14:32:40;102024.16;;;14.35;52.51
37298;BME280;30517;51.932;4.278;2023-04-26T14:35:22;102017.06;;;14.33;52.78
37298;BME280;30517;51.932;4.278;2023-04-26T14:38:03;102024.19;;;14.45;52.60
37298;BME280;30517;51.932;4.278;2023-04-26T14:40:45;102021.50;;;14.40;52.67
37298;BME280;30517;51.932;4.278;2023-04-26T14:43:26;101995.84;;;14.31;52.56
37298;BME280;30517;51.932;4.278;2023-04-26T14:46:07;102030.38;;;14.57;52.48